createdAt,value
2023-01-08T00:02:05.067Z,51.35
2023-01-08T00:04:32.028Z,51.30
2023-01-08T00:06:58.915Z,51.13
2023-01-08T00:09:25.977Z,50.53
2023-01-08T00:11:52.818Z,50.30
2023-01-08T00:14:19.782Z,52.55
2023-01-08T00:16:46.821Z,52.33
2023-01-08T00:19:14.175Z,51.05
2023-01-08T00:21:41.186Z,55.17
2023-01-08T00:24:08.099Z,53.40
2023-01-08T00:26:35.158Z,54.08
2023-01-08T00:29:02.213Z,52.58
2023-01-08T00:31:29.041Z,55.58
2023-01-08T00:33:56.105Z,54.03
2023-01-08T00:36:22.997Z,50.25
2023-01-08T00:38:50.033Z,50.38
2023-01-08T00:41:17.823Z,51.28
2023-01-08T00:43:44.783Z,53.05
2023-01-08T00:46:11.789Z,55.83
2023-01-08T00:48:39.378Z,55.17
2023-01-08T00:51:07.606Z,54.65
2023-01-08T00:53:34.612Z,54.22
2023-01-08T00:56:04.834Z,55.00
2023-01-08T00:58:31.766Z,55.97
2023-01-08T01:00:59.000Z,55.78
2023-01-08T01:03:26.215Z,54.15
2023-01-08T01:06:05.756Z,53.60
2023-01-08T01:08:33.127Z,52.20
2023-01-08T01:11:00.138Z,54.25
2023-01-08T01:13:27.002Z,55.25
2023-01-08T01:16:00.171Z,54.95
2023-01-08T01:18:27.595Z,53.42
2023-01-08T01:20:54.719Z,56.58
2023-01-08T01:23:21.642Z,54.78
2023-01-08T01:25:48.679Z,56.45
2023-01-08T01:28:16.308Z,56.50
2023-01-08T01:30:43.384Z,55.58
2023-01-08T01:33:10.373Z,56.33
2023-01-08T01:35:37.299Z,57.40
2023-01-08T01:38:04.151Z,55.95
2023-01-08T01:40:31.324Z,57.67
2023-01-08T01:42:58.518Z,58.13
2023-01-08T01:45:27.828Z,59.15
2023-01-08T01:48:00.255Z,56.97
2023-01-08T01:50:27.267Z,62.13
2023-01-08T01:52:58.498Z,62.30
2023-01-08T01:55:26.248Z,61.80
2023-01-08T01:57:55.044Z,60.22
2023-01-08T02:00:23.297Z,58.65
2023-01-08T02:02:51.021Z,57.83
2023-01-08T02:05:17.809Z,56.33
2023-01-08T02:07:54.992Z,60.53
2023-01-08T02:10:35.851Z,58.42
2023-01-08T02:13:08.970Z,59.05
2023-01-08T02:15:54.376Z,57.65
2023-01-08T02:18:28.053Z,57.28
2023-01-08T02:21:01.618Z,57.47
2023-01-08T02:23:40.449Z,60.10
2023-01-08T02:26:13.052Z,57.35
2023-01-08T02:28:45.255Z,60.35
2023-01-08T02:31:13.168Z,60.15
2023-01-08T02:33:40.192Z,61.33
2023-01-08T02:36:12.698Z,61.45
2023-01-08T02:38:49.113Z,56.88
2023-01-08T02:41:17.620Z,58.10
2023-01-08T02:43:46.908Z,57.75
2023-01-08T02:46:23.655Z,58.17
2023-01-08T02:49:01.580Z,62.97
2023-01-08T02:51:30.993Z,58.15
2023-01-08T02:54:00.224Z,56.90
2023-01-08T02:56:30.670Z,57.03
2023-01-08T02:59:01.140Z,56.85
2023-01-08T03:01:28.969Z,58.28
2023-01-08T03:04:00.439Z,62.85
2023-01-08T03:06:28.879Z,64.45
2023-01-08T03:08:55.686Z,60.30
2023-01-08T03:11:23.974Z,59.92
2023-01-08T03:14:00.553Z,57.53
2023-01-08T03:16:30.489Z,58.47
2023-01-08T03:19:02.848Z,57.72
2023-01-08T03:21:30.740Z,57.78
2023-01-08T03:24:08.615Z,57.28
2023-01-08T03:26:37.728Z,57.30
2023-01-08T03:29:05.301Z,57.78
2023-01-08T03:31:35.894Z,61.85
2023-01-08T03:34:04.059Z,59.15
2023-01-08T03:36:30.918Z,61.20
2023-01-08T03:39:04.296Z,59.50
2023-01-08T03:41:33.061Z,61.20
2023-01-08T03:44:00.347Z,58.90
2023-01-08T03:46:32.744Z,63.25
2023-01-08T03:49:00.761Z,63.88
2023-01-08T03:51:27.782Z,64.90
2023-01-08T03:53:57.377Z,62.50
2023-01-08T03:56:24.211Z,61.72
2023-01-08T03:58:51.066Z,61.38
2023-01-08T04:01:17.934Z,62.65
2023-01-08T04:03:44.630Z,65.28
2023-01-08T04:06:11.397Z,63.65
2023-01-08T04:08:38.156Z,65.75
2023-01-08T04:11:04.936Z,67.88
2023-01-08T04:13:31.703Z,69.82
2023-01-08T04:15:58.512Z,69.28
2023-01-08T04:18:25.289Z,68.53
2023-01-08T04:20:51.953Z,68.55
2023-01-08T04:23:18.647Z,69.50
2023-01-08T04:25:45.492Z,68.40
2023-01-08T04:28:12.237Z,72.97
2023-01-08T04:30:39.001Z,73.18
2023-01-08T04:33:05.813Z,70.88
2023-01-08T04:35:32.550Z,67.38
2023-01-08T04:37:59.262Z,65.38
2023-01-08T04:40:26.473Z,62.38
2023-01-08T04:42:53.820Z,63.10
2023-01-08T04:45:20.567Z,65.13
2023-01-08T04:47:47.893Z,64.93
2023-01-08T04:50:14.795Z,66.15
2023-01-08T04:52:41.562Z,65.88
2023-01-08T04:55:08.411Z,62.67
2023-01-08T04:57:35.354Z,65.10
2023-01-08T05:00:02.583Z,62.80
2023-01-08T05:02:29.652Z,62.20
2023-01-08T05:04:56.565Z,66.32
2023-01-08T05:07:25.667Z,69.22
2023-01-08T05:09:52.791Z,67.72
2023-01-08T05:12:19.930Z,67.95
2023-01-08T05:14:46.667Z,71.22
2023-01-08T05:17:13.455Z,67.82
2023-01-08T05:19:40.176Z,65.70
2023-01-08T05:22:06.969Z,67.00
2023-01-08T05:24:33.738Z,68.43
2023-01-08T05:27:00.423Z,67.70
2023-01-08T05:29:27.147Z,66.57
2023-01-08T05:31:54.020Z,69.07
2023-01-08T05:34:20.679Z,67.85
2023-01-08T05:36:47.473Z,69.72
2023-01-08T05:39:14.222Z,70.10
2023-01-08T05:41:40.979Z,71.22
2023-01-08T05:44:07.685Z,73.65
2023-01-08T05:46:34.693Z,70.85
2023-01-08T05:49:01.818Z,69.68
2023-01-08T05:51:28.671Z,66.45
2023-01-08T05:53:55.531Z,63.53
2023-01-08T05:56:22.445Z,65.25
2023-01-08T05:58:49.173Z,65.63
2023-01-08T06:01:17.332Z,69.22
2023-01-08T06:03:44.149Z,68.50
2023-01-08T06:06:11.400Z,69.85
2023-01-08T06:08:38.078Z,68.60
2023-01-08T06:11:06.437Z,68.03
2023-01-08T06:13:33.840Z,66.13
2023-01-08T06:16:01.620Z,64.90
2023-01-08T06:18:29.273Z,65.07
2023-01-08T06:20:56.359Z,64.43
2023-01-08T06:23:23.196Z,62.03
2023-01-08T06:25:54.317Z,62.80
2023-01-08T06:28:21.305Z,61.67
2023-01-08T06:30:48.208Z,61.25
2023-01-08T06:33:15.049Z,63.58
2023-01-08T06:35:41.743Z,64.72
2023-01-08T06:38:08.464Z,65.38
2023-01-08T06:40:35.194Z,66.57
2023-01-08T06:43:03.722Z,68.97
2023-01-08T06:45:30.589Z,66.57
2023-01-08T06:48:00.725Z,67.22
2023-01-08T06:50:28.000Z,68.22
2023-01-08T06:52:55.557Z,67.13
2023-01-08T06:55:23.449Z,65.88
2023-01-08T06:58:01.670Z,67.18
2023-01-08T07:00:28.716Z,71.50
2023-01-08T07:02:55.616Z,70.97
2023-01-08T07:05:23.173Z,74.03
2023-01-08T07:07:50.008Z,70.35
2023-01-08T07:10:19.089Z,70.20
2023-01-08T07:12:46.616Z,72.85
2023-01-08T07:15:13.530Z,68.15
2023-01-08T07:17:40.234Z,70.07
2023-01-08T07:20:10.260Z,70.80
2023-01-08T07:22:38.004Z,75.32
2023-01-08T07:25:05.354Z,80.15
2023-01-08T07:27:32.236Z,82.93
2023-01-08T07:29:59.126Z,80.22
2023-01-08T07:32:25.936Z,82.15
2023-01-08T07:34:54.672Z,80.03
2023-01-08T07:37:22.799Z,83.20
2023-01-08T07:39:50.142Z,79.07
2023-01-08T07:42:17.945Z,77.18
2023-01-08T07:44:44.968Z,74.55
2023-01-08T07:47:11.702Z,77.32
2023-01-08T07:49:38.494Z,73.97
2023-01-08T07:52:05.191Z,74.72
2023-01-08T07:54:31.917Z,73.75
2023-01-08T07:56:58.632Z,71.93
2023-01-08T07:59:25.466Z,70.28
2023-01-08T08:01:52.394Z,69.07
2023-01-08T08:04:21.748Z,65.60
2023-01-08T08:06:48.472Z,67.00
2023-01-08T08:09:15.268Z,68.85
2023-01-08T08:11:42.055Z,73.35
2023-01-08T08:14:09.119Z,73.82
2023-01-08T08:16:36.059Z,73.85
2023-01-08T08:19:03.061Z,74.45
2023-01-08T08:21:30.679Z,74.78
2023-01-08T08:23:57.893Z,79.05
2023-01-08T08:26:24.957Z,74.00
2023-01-08T08:28:51.824Z,76.00
2023-01-08T08:31:18.546Z,73.22
2023-01-08T08:33:45.330Z,73.18
2023-01-08T08:36:12.165Z,73.97
2023-01-08T08:38:39.878Z,67.68
2023-01-08T08:41:07.250Z,70.68
2023-01-08T08:43:34.017Z,71.53
2023-01-08T08:46:00.788Z,71.10
2023-01-08T08:48:27.558Z,69.03
2023-01-08T08:50:54.695Z,70.05
2023-01-08T08:53:21.555Z,73.95
2023-01-08T08:55:48.405Z,73.55
2023-01-08T08:58:15.408Z,71.65
2023-01-08T09:00:42.856Z,67.22
2023-01-08T09:03:14.617Z,68.28
2023-01-08T09:05:43.187Z,68.20
2023-01-08T09:08:10.470Z,69.40
2023-01-08T09:10:37.688Z,74.03
2023-01-08T09:13:04.496Z,72.25
2023-01-08T09:15:31.281Z,70.28
2023-01-08T09:17:58.387Z,67.80
2023-01-08T09:20:26.340Z,75.20
2023-01-08T09:22:53.486Z,73.50
2023-01-08T09:25:20.369Z,70.95
2023-01-08T09:27:47.290Z,69.40
2023-01-08T09:30:14.250Z,71.30
2023-01-08T09:32:41.132Z,70.90
2023-01-08T09:35:08.094Z,69.22
2023-01-08T09:37:34.826Z,65.40
2023-01-08T09:40:03.309Z,67.97
2023-01-08T09:42:30.793Z,70.40
2023-01-08T09:44:59.363Z,72.00
2023-01-08T09:47:29.096Z,71.18
2023-01-08T09:49:58.453Z,75.13
2023-01-08T09:52:25.220Z,78.35
2023-01-08T09:54:53.229Z,80.63
2023-01-08T09:57:21.446Z,78.50
2023-01-08T09:59:49.223Z,75.75
2023-01-08T10:02:24.030Z,78.55
2023-01-08T10:04:54.675Z,80.22
2023-01-08T10:07:22.535Z,77.90
2023-01-08T10:09:52.124Z,75.80
2023-01-08T10:12:29.837Z,72.75
2023-01-08T10:15:00.244Z,69.97
2023-01-08T10:17:29.834Z,70.22
2023-01-08T10:19:56.811Z,74.95
2023-01-08T10:22:24.960Z,72.05
2023-01-08T10:24:51.959Z,67.78
2023-01-08T10:27:21.289Z,70.97
2023-01-08T10:29:52.670Z,73.22
2023-01-08T10:32:29.463Z,74.47
2023-01-08T10:34:56.859Z,68.63
2023-01-08T10:37:31.843Z,67.25
2023-01-08T10:40:06.999Z,67.88
2023-01-08T10:42:35.294Z,66.47
2023-01-08T10:45:07.561Z,67.07
2023-01-08T10:47:36.134Z,60.67
2023-01-08T10:50:03.973Z,58.90
2023-01-08T10:52:36.440Z,55.17
2023-01-08T10:55:23.069Z,54.83
2023-01-08T10:57:56.130Z,52.75
2023-01-08T11:00:24.550Z,54.13
2023-01-08T11:02:51.841Z,51.40
2023-01-08T11:05:19.015Z,55.38
2023-01-08T11:07:51.992Z,51.83
2023-01-08T11:10:26.004Z,53.50
2023-01-08T11:13:04.342Z,53.30
2023-01-08T11:15:32.882Z,56.53
2023-01-08T11:18:15.363Z,59.30
2023-01-08T11:20:42.221Z,60.20
2023-01-08T11:23:11.679Z,61.28
2023-01-08T11:25:39.189Z,58.83
2023-01-08T11:28:07.066Z,59.35
2023-01-08T11:30:36.438Z,54.78
2023-01-08T11:33:10.167Z,51.30
2023-01-08T11:38:05.917Z,48.03
2023-01-08T11:40:39.250Z,53.50
2023-01-08T11:43:25.121Z,55.95
2023-01-08T11:46:10.390Z,64.28
2023-01-08T11:48:45.704Z,68.60
2023-01-08T11:51:21.828Z,68.15
2023-01-08T11:54:01.070Z,65.40
2023-01-08T11:56:43.183Z,71.20
2023-01-08T11:59:10.210Z,69.40
2023-01-08T12:01:43.654Z,70.35
2023-01-08T12:04:22.794Z,71.68
2023-01-08T12:06:55.983Z,68.38
2023-01-08T12:09:52.141Z,66.37
2023-01-08T12:12:37.833Z,63.72
2023-01-08T12:15:05.532Z,66.88
2023-01-08T12:17:35.679Z,65.65
2023-01-08T12:20:17.387Z,65.57
2023-01-08T12:22:59.185Z,66.45
2023-01-08T12:25:47.953Z,61.97
2023-01-08T12:28:35.666Z,59.17
2023-01-08T12:31:27.076Z,60.97
2023-01-08T12:34:10.327Z,59.25
2023-01-08T12:37:00.420Z,56.20
2023-01-08T12:39:50.504Z,49.63
2023-01-08T12:42:19.375Z,46.72
2023-01-08T12:44:46.795Z,49.33
2023-01-08T12:47:20.754Z,51.15
2023-01-08T12:52:37.632Z,46.97
2023-01-08T12:58:37.822Z,46.85
2023-01-08T13:01:42.711Z,48.13
2023-01-08T13:07:33.890Z,50.10
2023-01-08T13:11:10.578Z,43.72
2023-01-08T13:13:44.635Z,43.60
2023-01-08T13:19:42.985Z,36.17
2023-01-08T13:26:03.288Z,35.10
2023-01-08T13:28:41.400Z,36.58
2023-01-08T13:35:23.891Z,32.75
2023-01-08T13:38:07.100Z,32.83
2023-01-08T13:41:46.502Z,28.50
2023-01-08T14:22:42.893Z,45.40
2023-01-08T14:34:27.836Z,41.78
2023-01-08T14:37:44.361Z,43.72
2023-01-08T14:51:08.155Z,42.28
2023-01-08T15:44:07.710Z,37.83
2023-01-08T15:46:42.916Z,37.38
2023-01-08T15:49:29.116Z,37.20
2023-01-08T15:52:03.757Z,37.00
2023-01-08T15:55:11.572Z,31.33
2023-01-08T15:57:50.619Z,30.45
2023-01-08T16:00:33.022Z,34.15
2023-01-08T16:03:30.029Z,33.97
2023-01-08T16:06:10.707Z,32.08
2023-01-08T16:08:39.873Z,29.58
2023-01-08T16:11:08.171Z,29.08
2023-01-08T16:13:35.341Z,31.98
2023-01-08T16:16:06.855Z,32.15
2023-01-08T16:18:33.826Z,31.45
2023-01-08T16:21:01.362Z,32.05
2023-01-08T16:23:28.291Z,33.65
2023-01-08T16:25:58.140Z,30.67
2023-01-08T16:28:25.017Z,29.98
2023-01-08T16:30:56.727Z,29.23
2023-01-08T16:33:39.259Z,27.83
2023-01-08T16:36:17.267Z,28.10
2023-01-08T16:41:39.228Z,30.10
2023-01-08T16:47:31.311Z,33.05
2023-01-08T16:56:51.203Z,32.78
2023-01-08T16:59:48.552Z,35.08
2023-01-08T17:02:20.143Z,38.08
2023-01-08T17:04:55.545Z,36.25
2023-01-08T17:07:47.840Z,36.13
2023-01-08T17:18:37.996Z,34.42
2023-01-08T17:21:25.024Z,37.42
2023-01-08T17:42:08.347Z,31.23
2023-01-08T17:44:41.256Z,34.40
2023-01-08T22:05:05.327Z,23.27
2023-01-08T22:10:26.754Z,27.15
2023-01-08T22:13:01.451Z,29.10
2023-01-08T22:15:37.112Z,31.15
2023-01-08T22:18:06.269Z,32.08
2023-01-08T22:20:43.323Z,28.30
2023-01-08T22:23:11.654Z,28.48
2023-01-08T22:28:48.213Z,28.58
2023-01-08T22:31:26.308Z,26.27
2023-01-08T22:34:19.471Z,26.08
2023-01-08T22:36:57.026Z,27.88
2023-01-08T22:39:32.642Z,24.05
2023-01-08T22:51:52.572Z,21.60
2023-01-08T22:54:25.945Z,24.88
2023-01-08T22:56:57.647Z,23.63
2023-01-08T23:02:16.401Z,24.17
2023-01-08T23:04:45.589Z,23.65
2023-01-08T23:07:13.138Z,24.67
2023-01-08T23:09:40.823Z,24.70
2023-01-08T23:12:11.148Z,24.75
2023-01-08T23:14:39.718Z,26.67
2023-01-08T23:17:08.765Z,26.85
2023-01-08T23:19:37.144Z,24.83
2023-01-08T23:22:04.425Z,25.10
2023-01-08T23:24:33.016Z,25.58
2023-01-08T23:27:00.751Z,27.48
2023-01-08T23:29:30.859Z,27.77
2023-01-08T23:32:01.092Z,27.67
2023-01-08T23:34:29.182Z,27.77
2023-01-08T23:36:56.860Z,28.00
2023-01-08T23:39:27.739Z,27.35
2023-01-08T23:41:56.935Z,26.88
2023-01-08T23:44:26.313Z,24.95
2023-01-08T23:46:53.669Z,25.17
2023-01-08T23:49:22.620Z,27.10
2023-01-08T23:51:50.177Z,25.23
2023-01-08T23:54:17.587Z,23.95
2023-01-08T23:56:44.879Z,24.20
2023-01-08T23:59:12.537Z,24.92
